Map

Track Data

SID SEASON NUMBER BASIN SUBBASIN NAME ISO_TIME NATURE LAT LON WMO_WIND WMO_PRES WMO_AGENCY TRACK_TYPE DIST2LAND LANDFALL IFLAG USA_AGENCY USA_ATCF_ID USA_LAT USA_LON USA_RECORD USA_STATUS USA_WIND USA_PRES USA_SSHS USA_R34_NE USA_R34_SE USA_R34_SW USA_R34_NW USA_R50_NE USA_R50_SE USA_R50_SW USA_R50_NW USA_R64_NE USA_R64_SE USA_R64_SW USA_R64_NW USA_POCI USA_ROCI USA_RMW USA_EYE TOKYO_LAT TOKYO_LON TOKYO_GRADE TOKYO_WIND TOKYO_PRES TOKYO_R50_DIR TOKYO_R50_LONG TOKYO_R50_SHORT TOKYO_R30_DIR TOKYO_R30_LONG TOKYO_R30_SHORT TOKYO_LAND CMA_LAT CMA_LON CMA_CAT CMA_WIND CMA_PRES HKO_LAT HKO_LON HKO_CAT HKO_WIND HKO_PRES NEWDELHI_LAT NEWDELHI_LON NEWDELHI_GRADE NEWDELHI_WIND NEWDELHI_PRES NEWDELHI_CI NEWDELHI_DP NEWDELHI_POCI REUNION_LAT REUNION_LON REUNION_TYPE REUNION_WIND REUNION_PRES REUNION_TNUM REUNION_CI REUNION_RMW REUNION_R34_NE REUNION_R34_SE REUNION_R34_SW REUNION_R34_NW REUNION_R50_NE REUNION_R50_SE REUNION_R50_SW REUNION_R50_NW REUNION_R64_NE REUNION_R64_SE REUNION_R64_SW REUNION_R64_NW BOM_LAT BOM_LON BOM_TYPE BOM_WIND BOM_PRES BOM_TNUM BOM_CI BOM_RMW BOM_R34_NE BOM_R34_SE BOM_R34_SW BOM_R34_NW BOM_R50_NE BOM_R50_SE BOM_R50_SW BOM_R50_NW BOM_R64_NE BOM_R64_SE BOM_R64_SW BOM_R64_NW BOM_ROCI BOM_POCI BOM_EYE BOM_POS_METHOD BOM_PRES_METHOD NADI_LAT NADI_LON NADI_CAT NADI_WIND NADI_PRES WELLINGTON_LAT WELLINGTON_LON WELLINGTON_WIND WELLINGTON_PRES DS824_LAT DS824_LON DS824_STAGE DS824_WIND DS824_PRES TD9636_LAT TD9636_LON TD9636_STAGE TD9636_WIND TD9636_PRES TD9635_LAT TD9635_LON TD9635_WIND TD9635_PRES TD9635_ROCI NEUMANN_LAT NEUMANN_LON NEUMANN_CLASS NEUMANN_WIND NEUMANN_PRES MLC_LAT MLC_LON MLC_CLASS MLC_WIND MLC_PRES USA_GUST BOM_GUST BOM_GUST_PER REUNION_GUST REUNION_GUST_PER USA_SEAHGT USA_SEARAD_NE USA_SEARAD_SE USA_SEARAD_SW USA_SEARAD_NW STORM_SPEED STORM_DIR
1973119S09087 1973 47 SI MM MARCELLE 1973-04-28 18:00:00 TS -8.80000 87.3000 main 1511 1511 O_____________ jtwc_sh SH351973 -8.80000 87.3000 -1 0 0
1973119S09087 1973 47 SI MM MARCELLE 1973-04-28 21:00:00 TS -8.79996 87.3100 main 1511 1511 P_____________ SH351973 -8.79996 87.3100 -1 1 270
1973119S09087 1973 47 SI MM MARCELLE 1973-04-29 00:00:00 TS -8.80000 87.2000 25 1001 bom main 1520 1520 O_____O__O__O_ jtwc_sh SH351973 -8.80000 87.2000 -1 -8.80000 87.2000 20 25 1001 2.00000 -8.80000 87.2000 TC 30 1001 -8.80000 87.2000 TC 25 1001 45 45 4 270
1973119S09087 1973 47 SI MM MARCELLE 1973-04-29 03:00:00 TS -8.80005 86.8833 25 1000 bom main 1549 1549 P_____O__PO_P_ SH351973 -8.80005 86.8950 -1 -8.80000 86.9000 20 25 1000 2.00000 2.00000 -8.80008 86.8475 TC 30 1000 -8.80000 86.9000 2 -8.80008 86.8475 TC 27 1000 45 45 7 270
1973119S09087 1973 47 SI MM MARCELLE 1973-04-29 06:00:00 TS -8.80002 86.5036 25 999 bom main 1587 1587 O_____O__OP_O_ jtwc_sh SH351973 -8.80000 86.5000 -1 -8.80000 86.5000 20 25 999 2.00000 -8.80000 86.5000 TC 30 999 -8.80021 86.5344 2 -8.80000 86.5000 TC 30 999 45 45 7 270
1973119S09087 1973 47 SI MM MARCELLE 1973-04-29 09:00:00 TS -8.79999 86.1659 30 997 bom main 1616 1616 P_____O__PP_P_ SH351973 -8.79995 86.1575 -1 -8.80000 86.2000 20 30 997 2.50000 -8.79995 86.1575 TC 32 997 -8.80021 86.1650 2 -8.79995 86.1575 TC 32 997 45 45 7 270
1973119S09087 1973 47 SI MM MARCELLE 1973-04-29 12:00:00 TS -8.80002 85.7980 30 996 bom main 1654 1654 O_____O__OP_O_ jtwc_sh SH351973 -8.80000 85.8000 -1 -8.80000 85.8000 20 30 996 2.50000 -8.80000 85.8000 TC 35 996 -8.80010 85.7881 2 -8.80000 85.8000 TC 35 996 45 45 8 270
1973119S09087 1973 47 SI MM MARCELLE 1973-04-29 15:00:00 TS -8.79999 85.4050 35 995 bom main 1692 1692 P_____O__PO_P_ SH351973 -8.79998 85.4075 -1 -8.80000 85.4000 30 35 995 3.00000 -8.79998 85.4075 TC 37 995 -8.80000 85.4000 2 -8.79998 85.4075 TC 37 995 49 49 8 270
1973119S09087 1973 47 SI MM MARCELLE 1973-04-29 18:00:00 TS -8.79999 84.9998 35 994 bom main 1718 1705 O_____O__OP_O_ jtwc_sh SH351973 -8.80000 85.0000 -1 -8.80000 85.0000 30 35 994 3.00000 -8.80000 85.0000 TC 40 994 -8.79997 84.9991 2 -8.80000 85.0000 TC 40 994 49 49 8 270
1973119S09087 1973 47 SI MM MARCELLE 1973-04-29 21:00:00 TS -8.79997 84.5963 40 993 bom main 1705 1694 P_____O__PP_P_ SH351973 -8.79996 84.6000 -1 -8.80000 84.6000 30 40 993 3.00000 -8.79998 84.5925 TC 42 993 -8.79997 84.5925 2 -8.79998 84.5925 TC 42 993 55 55 8 270
1973119S09087 1973 47 SI MM MARCELLE 1973-04-30 00:00:00 TS -8.80000 84.1983 40 992 bom main 1694 1685 O_____O__OP_O_ jtwc_sh SH351973 -8.80000 84.2000 -1 -8.80000 84.2000 30 40 992 3.00000 -8.80000 84.2000 TC 45 992 -8.79998 84.1897 2 -8.80000 84.2000 TC 45 992 55 55 8 270
1973119S09087 1973 47 SI MM MARCELLE 1973-04-30 03:00:00 TS -8.79998 83.8117 40 992 bom main 1685 1678 P_____O__PO_P_ SH351973 -8.79998 83.7925 -1 -8.80000 83.8000 30 40 992 3.00000 3.00000 -8.79995 83.8425 TC 45 991 -8.80000 83.8000 2 -8.79995 83.8425 TC 45 991 55 55 7 270
1973119S09087 1973 47 SI MM MARCELLE 1973-04-30 06:00:00 TS -8.79930 83.4553 45 991 bom main 1678 1670 O_____O__OP_O_ jtwc_sh SH351973 -8.80000 83.4000 -1 -8.80000 83.5000 30 45 991 3.00000 -8.80000 83.5000 TC 45 991 -8.79580 83.4316 2 -8.80000 83.5000 TC 45 991 64 64 7 270
1973119S09087 1973 47 SI MM MARCELLE 1973-04-30 09:00:00 TS -8.79870 83.0912 50 989 bom main 1670 1665 P_____O__PP_P_ SH351973 -8.79997 83.0350 -1 -8.80000 83.1000 30 50 989 3.50000 -8.79997 83.1500 TC 47 989 -8.79232 83.0775 2 -8.79997 83.1500 TC 47 989 69 69 7 270
1973119S09087 1973 47 SI MM MARCELLE 1973-04-30 12:00:00 TS -8.79878 82.7558 50 988 bom main 1665 1659 O_____O__OP_O_ jtwc_sh SH351973 -8.80000 82.7000 -1 -8.80000 82.8000 30 50 988 3.50000 -8.80000 82.8000 TC 50 988 -8.79269 82.7347 2 -8.80000 82.8000 TC 50 988 69 69 7 270
1973119S09087 1973 47 SI MM MARCELLE 1973-04-30 15:00:00 TS -8.79747 82.4167 50 987 bom main 1659 1655 P_____O__PO_P_ SH351973 -8.79244 82.4000 -1 -8.80000 82.4000 30 50 987 3.50000 -8.79997 82.4500 TC 50 987 -8.80000 82.4000 2 -8.79997 82.4500 TC 52 987 69 69 7 270
1973119S09087 1973 47 SI MM MARCELLE 1973-04-30 18:00:00 TS -8.80092 82.0940 50 986 bom main 1655 1652 O_____O__OP_O_ jtwc_sh SH351973 -8.80000 82.1000 -1 -8.80000 82.1000 30 50 986 3.50000 -8.80000 82.1000 TC 50 986 -8.80553 82.0637 2 -8.80000 82.1000 TC 55 986 69 69 7 268
1973119S09087 1973 47 SI MM MARCELLE 1973-04-30 21:00:00 TS -8.81748 81.7367 50 985 bom main 1651 1649 P_____O__PP_P_ SH351973 -8.85001 81.7500 -1 -8.80000 81.7000 30 50 985 3.50000 -8.79249 81.7425 TC 52 984 -8.81989 81.7349 2 -8.79249 81.7425 TC 55 984 69 69 7 267
1973119S09087 1973 47 SI MM MARCELLE 1973-05-01 00:00:00 TS -8.84155 81.4023 55 983 bom main 1649 1649 O_____O__OP_O_ jtwc_sh SH351973 -8.90000 81.4000 -1 -8.80000 81.4000 30 55 983 4.00000 -8.80000 81.4000 TC 55 983 -8.84930 81.4137 2 -8.80000 81.4000 TC 55 983 75 75 6 265
1973119S09087 1973 47 SI MM MARCELLE 1973-05-01 03:00:00 TS -8.87580 81.0950 55 982 bom main 1659 1658 P_____O__PO_P_ SH351973 -8.89246 81.0924 -1 -8.90000 81.1000 30 55 982 4.00000 -8.83496 81.0925 TC 57 982 -8.90000 81.1000 2 -8.83496 81.0925 TC 57 982 75 75 6 264
1973119S09087 1973 47 SI MM MARCELLE 1973-05-01 06:00:00 TS -8.90968 80.7968 55 981 bom main 1658 1658 O_____O__OP_O_ jtwc_sh SH351973 -8.90000 80.8000 -1 -8.90000 80.8000 30 55 981 4.00000 -8.90000 80.8000 TC 60 981 -8.95809 80.7806 2 -8.90000 80.8000 TC 60 981 75 75 6 261
1973119S09087 1973 47 SI MM MARCELLE 1973-05-01 09:00:00 TS -8.97248 80.4950 60 980 bom main 1669 1669 P_____O__PP_P_ SH351973 -8.96998 80.5000 -1 -8.90000 80.5000 30 60 980 4.00000 -8.97748 80.5000 TC 60 980 -9.03997 80.4699 2 -8.97748 80.5000 TC 62 980 84 84 6 251
1973119S09087 1973 47 SI MM MARCELLE 1973-05-01 12:00:00 TS -9.10864 80.1957 60 979 bom main 1681 1681 O_____O__OP_O_ jtwc_sh SH351973 -9.10000 80.2000 -1 -9.10000 80.2000 30 60 979 4.00000 -9.10000 80.2000 TC 60 979 -9.15186 80.1743 2 -9.10000 80.2000 TC 65 979 84 84 7 242
1973119S09087 1973 47 SI MM MARCELLE 1973-05-01 15:00:00 TS -9.28499 79.8975 main 1704 1704 P_____O__PO_P_ SH351973 -9.27749 79.8925 -1 -9.30000 79.9000 30 60 978 4.00000 -9.27748 79.9000 TC 62 978 -9.30000 79.9000 2 -9.27748 79.9000 TC 65 978 84 84 7 236
1973119S09087 1973 47 SI MM MARCELLE 1973-05-01 18:00:00 TS -9.49885 79.6015 main 1729 1729 O_____O__OP_O_ jtwc_sh SH351973 -9.50000 79.6000 -1 -9.50000 79.6000 40 65 977 4.50000 -9.50000 79.6000 TC 65 977 -9.49313 79.6090 2 -9.50000 79.6000 TC 65 977 89 89 7 233
1973119S09087 1973 47 SI MM MARCELLE 1973-05-01 21:00:00 TS -9.73669 79.2943 main 1753 1753 P_____O__PP_P_ SH351973 -9.75001 79.3125 -1 -9.70000 79.3000 40 65 975 4.50000 -9.75005 79.2476 TC 65 975 -9.72003 79.3453 2 -9.75005 79.2476 TC 67 975 89 89 7 227
1973119S09087 1973 47 SI MM MARCELLE 1973-05-02 00:00:00 TS -9.99365 79.0557 main 1789 1789 O_____O__OP_O_ jtwc_sh SH351973 -10.0000 79.1000 -1 -10.0000 79.0000 40 65 974 4.50000 -10.0000 79.0000 TC 65 974 -9.96189 79.1340 2 -10.0000 79.0000 TC 70 974 89 89 6 211
1973119S09087 1973 47 SI MM MARCELLE 1973-05-02 03:00:00 TS -10.2050 79.0033 main 1812 1812 P_____O__PO_P_ SH351973 -10.2075 79.0050 -1 -10.2000 79.0000 40 70 973 4.50000 4.50000 -10.2075 79.0049 TC 67 973 -10.2000 79.0000 2 -10.2075 79.0049 TC 70 973 99 99 4 180
1973119S09087 1973 47 SI MM MARCELLE 1973-05-02 06:00:00 TS -10.3971 79.0445 main 1834 1834 O_____O__OP_O_ jtwc_sh SH351973 -10.4000 79.0000 -1 -10.4000 79.1000 40 70 973 4.50000 -10.4000 79.1000 TC 70 973 -10.3827 78.9667 2 -10.4000 79.1000 TC 70 973 99 99 4 171
1973119S09087 1973 47 SI MM MARCELLE 1973-05-02 09:00:00 TS -10.5937 79.0608 main 1856 1856 P_____O__PP_P_ SH351973 -10.6000 79.0275 -1 -10.6000 79.1000 40 70 973 4.50000 -10.6000 79.1000 TC 70 973 -10.5624 79.0098 2 -10.6000 79.1000 TC 70 973 99 99 4 173
1973119S09087 1973 47 SI MM MARCELLE 1973-05-02 12:00:00 TS -10.7935 79.0997 main 1878 1878 O_____O__OP_O_ jtwc_sh SH351973 -10.8000 79.1000 -1 -10.8000 79.1000 40 70 973 4.50000 -10.8000 79.1000 TC 70 973 -10.7609 79.0980 2 -10.8000 79.1000 TC 70 973 99 99 4 164
1973119S09087 1973 47 SI MM MARCELLE 1973-05-02 15:00:00 TS -10.9900 79.1808 main 1899 1899 P_____O__PO_P_ SH351973 -10.9775 79.2000 -1 -11.0000 79.2000 40 70 973 4.50000 -10.9925 79.1425 TC 70 973 -11.0000 79.2000 2 -10.9925 79.1425 TC 70 973 99 99 4 161
1973119S09087 1973 47 SI MM MARCELLE 1973-05-02 18:00:00 TS -11.2097 79.2426 main 1922 1921 O_____O__OP_O_ jtwc_sh SH351973 -11.2000 79.3000 -1 -11.2000 79.2000 40 70 973 4.50000 -11.2000 79.2000 TC 70 973 -11.2582 79.2559 2 -11.2000 79.2000 TC 70 973 99 99 5 165
1973119S09087 1973 47 SI MM MARCELLE 1973-05-02 21:00:00 TS -11.4542 79.2985 main 1954 1954 P_____O__PP_P_ SH351973 -11.4975 79.3501 -1 -11.4000 79.3000 40 70 973 4.50000 -11.3825 79.2351 TC 70 973 -11.5651 79.3205 2 -11.3825 79.2351 TC 70 973 99 99 6 166
1973119S09087 1973 47 SI MM MARCELLE 1973-05-03 00:00:00 TS -11.7945 79.3923 reunion main 1987 1987 O____OO__OP_O_ jtwc_sh SH351973 -11.9000 79.4000 -1 -12.1000 79.7000 3 9.90000 -11.7000 79.3000 40 70 973 4.50000 -11.7000 79.3000 TC 70 973 -11.9394 79.3998 2 -11.7000 79.3000 TC 70 973 99 99 9 162
1973119S09087 1973 47 SI MM MARCELLE 1973-05-03 03:00:00 TS -12.3495 79.5902 main 2042 2042 P____PO__PO_P_ SH351973 -12.4050 79.4851 -1 -12.6050 79.8301 3 -12.4000 79.5000 40 70 973 4.50000 -12.2900 79.4349 TC 67 973 -12.4000 79.5000 2 -12.2900 79.4349 TC 70 973 99 99 13 162
1973119S09087 1973 47 SI MM MARCELLE 1973-05-03 06:00:00 TS -13.0132 79.7968 reunion main 2119 2119 O____OO__OP_O_ jtwc_sh SH351973 -13.0000 79.6000 -1 -13.2000 80.0000 99 9.90000 -13.0000 79.6000 40 70 974 4.50000 -13.0000 79.6000 TC 65 974 -12.9557 79.6244 2 -13.0000 79.6000 TC 70 974 99 99 15 163
1973119S09087 1973 47 SI MM MARCELLE 1973-05-03 09:00:00 TS -13.7469 80.0161 main 2196 2196 P____PO__PP_P_ SH351973 -13.6275 79.7351 -1 -13.9350 80.2349 99 -13.7000 79.8000 40 65 975 4.50000 -13.6500 79.7501 TC 65 975 -13.5952 79.7701 2 -13.6500 79.7501 TC 67 975 89 89 15 166
1973119S09087 1973 47 SI MM MARCELLE 1973-05-03 12:00:00 TS -14.4986 80.1923 main 2285 2285 O____OO__OP_O_ jtwc_sh SH351973 -14.3000 79.9000 -1 -14.7000 80.5000 99 9.90000 -14.3000 79.9000 40 65 976 4.50000 -14.3000 79.9000 TC 65 976 -14.2870 79.9308 2 -14.3000 79.9000 TC 65 976 89 89 15 168
1973119S09087 1973 47 SI MM MARCELLE 1973-05-03 15:00:00 TS -15.2361 80.3551 60 978 bom main 2363 2363 P____PO__PO_P_ SH351973 -14.9925 80.1000 -1 -15.3350 80.7800 99 -15.0000 80.1000 30 60 978 4.00000 -14.9425 80.0427 TC 62 977 -15.0000 80.1000 2 -14.9425 80.0427 TC 65 977 84 84 15 168
1973119S09087 1973 47 SI MM MARCELLE 1973-05-03 18:00:00 TS -15.9419 80.4951 60 979 bom main 2442 2438 O____OO__OP_O_ jtwc_sh SH351973 -15.7000 80.3000 -1 -16.0000 81.0000 99 9.90000 -15.6000 80.2000 30 60 979 4.00000 -15.6000 80.2000 TC 60 979 -15.6774 80.2562 2 -15.6000 80.2000 TC 65 979 84 84 14 169
1973119S09087 1973 47 SI MM MARCELLE 1973-05-03 21:00:00 TS -16.6497 80.6319 60 980 bom main 2438 2434 P____PO__PP_P_ SH351973 -16.4000 80.4503 -1 -16.9024 81.0803 99 -16.3000 80.4000 30 60 980 4.00000 -16.2850 80.3852 TC 60 980 -16.3699 80.4210 2 -16.2850 80.3852 TC 62 980 84 84 14 169
1973119S09087 1973 47 SI MM MARCELLE 1973-05-04 00:00:00 TS -17.3308 80.7667 55 981 bom main 2442 2433 O____OO__OP_O_ jtwc_sh SH351973 -17.1000 80.6000 -1 -17.7000 81.1000 3 9.90000 -17.0000 80.6000 30 55 981 4.00000 -17.0000 80.6000 TC 60 981 -17.0774 80.6002 2 -17.0000 80.6000 TC 60 981 75 75 14 169
1973119S09087 1973 47 SI MM MARCELLE 1973-05-04 03:00:00 TS -17.9744 80.9134 55 982 bom main 2438 2436 P____PO__PO_P_ SH351973 -17.7850 80.7852 -1 -18.0000 81.1502 3 -17.8000 80.8000 30 55 982 3.00000 4.00000 -17.7425 80.8500 TC 57 982 -17.8000 80.8000 2 -17.7425 80.8500 TC 57 982 75 75 13 167
1973119S09087 1973 47 SI MM MARCELLE 1973-05-04 06:00:00 TS -18.6155 81.0814 55 983 bom main 2448 2443 O____OO__OP_O_ jtwc_sh SH351973 -18.5000 81.0000 -1 -18.3000 81.2000 99 9.90000 -18.5000 81.1000 30 55 983 4.00000 -18.5000 81.1000 TC 55 983 -18.5397 81.0325 2 -18.5000 81.1000 TC 55 983 75 75 14 167
1973119S09087 1973 47 SI MM MARCELLE 1973-05-04 09:00:00 TS -19.3392 81.2402 55 984 bom main 2448 2447 P____PO__PP_P_ SH351973 -19.3000 81.2425 -1 -19.0600 81.2205 99 -19.3000 81.3000 30 55 984 4.00000 -19.2499 81.3004 TC 52 984 -19.2926 81.2850 2 -19.2499 81.3004 TC 55 984 75 75 15 168
1973119S09087 1973 47 SI MM MARCELLE 1973-05-04 12:00:00 TS -20.0721 81.4161 55 986 bom main 2460 2459 O____OO__OP_O_ jtwc_sh SH351973 -20.1000 81.5000 -1 -20.0000 81.3000 99 9.90000 -20.0000 81.5000 30 55 986 4.00000 -20.0000 81.5000 TC 50 986 -20.0492 81.5451 2 -20.0000 81.5000 TC 55 986 75 75 15 166
1973119S09087 1973 47 SI MM MARCELLE 1973-05-04 15:00:00 TS -20.7905 81.6273 50 987 bom main 2476 2476 P____PO__PO_P_ SH351973 -20.8075 81.7503 -1 -20.9301 81.5343 99 -20.8000 81.8000 30 50 987 3.50000 -20.7500 81.7500 TC 50 987 -20.8000 81.8000 2 -20.7500 81.7500 TC 52 987 69 69 15 164
1973119S09087 1973 47 SI MM MARCELLE 1973-05-04 18:00:00 TS -21.4933 81.8455 50 989 bom main 2493 2493 O____OO__OP_O_ jtwc_sh SH351973 -21.5000 82.0000 -1 -21.8000 81.8000 99 9.90000 -21.5000 82.0000 30 50 989 3.50000 -21.5000 82.0000 TC 50 989 -21.5398 82.0095 2 -21.5000 82.0000 TC 50 989 69 69 15 164
1973119S09087 1973 47 SI MM MARCELLE 1973-05-04 21:00:00 TS -22.2193 82.0711 45 990 bom main 2524 2524 P____PO__PP_P_ SH351973 -22.2500 82.2502 -1 -22.5173 81.9432 99 -22.3000 82.2000 30 45 990 3.00000 -22.2574 82.1930 TC 47 990 -22.2718 82.2150 2 -22.2574 82.1930 TC 47 990 64 64 15 163
1973119S09087 1973 47 SI MM MARCELLE 1973-05-05 00:00:00 TS -22.9214 82.3264 40 991 bom main 2545 2545 O____OO__OP_O_ jtwc_sh SH351973 -23.0000 82.5000 -1 -23.1000 82.1000 2 9.90000 -23.0000 82.4000 30 40 991 3.00000 -23.0000 82.4000 TC 45 991 -22.9929 82.4379 2 -23.0000 82.4000 TC 45 991 55 55 15 160
1973119S09087 1973 47 SI MM MARCELLE 1973-05-05 03:00:00 TS -23.5933 82.6264 35 992 bom main 2580 2580 P____PO__PO_P_ SH351973 -23.7148 82.7281 -1 -23.5651 82.3851 2 -23.7000 82.7000 30 35 992 2.00000 3.00000 -23.7074 82.6704 TC 42 992 -23.7000 82.7000 2 -23.7074 82.6704 TC 42 992 49 49 15 156
1973119S09087 1973 47 SI MM MARCELLE 1973-05-05 06:00:00 TS -24.2409 82.9647 35 993 bom main 2625 2625 O____OO__OP_O_ jtwc_sh SH351973 -24.4000 83.0000 -1 -24.0000 82.7000 99 9.90000 -24.4000 83.0000 30 35 993 3.00000 -24.4000 83.0000 TC 40 993 -24.3681 82.9823 2 -24.4000 83.0000 TC 40 993 49 49 15 153
1973119S09087 1973 47 SI MM MARCELLE 1973-05-05 09:00:00 TS -24.8817 83.3486 35 994 bom main 2662 2662 P____PO__PP_P_ SH351973 -25.0425 83.3704 -1 -24.5497 82.9280 99 -25.1000 83.4000 30 35 994 3.00000 -25.1075 83.3851 TC 37 994 -25.0259 83.3128 2 -25.1075 83.3851 TC 37 994 49 49 15 151
1973119S09087 1973 47 SI MM MARCELLE 1973-05-05 12:00:00 TS -25.5407 83.7543 30 996 bom main 2719 2719 O____OO__OP_O_ jtwc_sh SH351973 -25.7000 83.8000 -1 -25.1000 83.2000 99 9.90000 -25.8000 83.8000 20 30 996 2.50000 -25.8000 83.8000 TC 35 996 -25.6958 83.7117 2 -25.8000 83.8000 TC 35 996 45 45 15 151
1973119S09087 1973 47 SI MM MARCELLE 1973-05-05 15:00:00 TS -26.1980 84.1605 30 997 bom main 2769 2751 P____PO__PO_P_ SH351973 -26.4270 84.2062 -1 -25.5495 83.5685 99 -26.4000 84.2000 20 30 997 2.50000 -26.4574 84.2005 TC 35 997 -26.4000 84.2000 2 -26.4574 84.2005 TC 35 997 45 45 16 151
1973119S09087 1973 47 SI MM MARCELLE 1973-05-05 18:00:00 TS -26.9412 84.6117 30 998 bom main 2751 2684 O____OO__OP_O_ jtwc_sh SH351973 -27.2000 84.7000 -1 -26.0000 84.1000 99 9.90000 -27.1000 84.6000 20 30 998 2.50000 -27.1000 84.6000 TC 35 998 -27.1739 84.6596 2 -27.1000 84.6000 TC 35 998 45 45 17 152
1973119S09087 1973 47 SI MM MARCELLE 1973-05-05 21:00:00 TS -27.7319 85.0699 30 999 bom main 2688 2631 P____PO__PP_P_ SH351973 -27.9917 85.3114 -1 -26.5264 84.8377 99 -27.7000 85.0000 20 30 999 2.50000 -27.6647 84.8416 TC 32 999 -27.9812 85.2298 2 -27.6647 84.8416 TC 32 999 45 45 19 148
1973119S09087 1973 47 SI MM MARCELLE 1973-05-06 00:00:00 TS -28.5397 85.7295 30 1000 bom main 2631 2579 O____OO__OP_O_ jtwc_sh SH351973 -28.8000 86.1000 -1 -27.1000 85.7000 6 9.90000 -28.4000 85.4000 20 30 1000 2.50000 -28.4000 85.4000 TC 30 1000 -28.7984 85.9845 2 -28.4000 85.4000 TC 30 1000 45 45 25 139
1973119S09087 1973 47 SI MM MARCELLE 1973-05-06 03:00:00 TS -29.6047 86.9003 25 1001 bom main 2573 2492 P_____O__PO_P_ SH351973 -29.6050 87.0028 -1 6 -29.6000 87.0000 20 25 1001 2.00000 -29.6090 86.6980 TC 30 1000 -29.6000 87.0000 2 -29.6090 86.6980 TC 27 1000 45 45 31 133
1973119S09087 1973 47 SI MM MARCELLE 1973-05-06 06:00:00 TS -30.6060 88.3122 30 1001 bom main 2482 2349 O_____O__OP_O_ jtwc_sh SH351973 -30.4000 88.2000 -1 -30.8000 88.4000 50 30 1001 -30.8000 88.4000 TC 30 1001 -30.4357 88.2733 2 -30.8000 88.4000 TC 25 1001 45 45 31 124
1973119S09087 1973 47 SI MM MARCELLE 1973-05-06 09:00:00 TS -31.3513 89.8997 30 1001 bom main 2341 2186 P_____O__PP_P_ SH351973 -31.2160 89.7412 -1 -31.4000 90.0000 50 30 1001 -31.5250 90.0442 TC 30 1001 -31.2261 89.8270 2 -31.5250 90.0442 TC 25 1001 45 45 32 115
1973119S09087 1973 47 SI WA MARCELLE 1973-05-06 12:00:00 TS -31.9505 91.7031 35 1001 bom main 2175 2000 O_____O__OP_O_ jtwc_sh SH351973 -31.9000 91.6000 -1 -32.0000 91.8000 51 35 1001 -32.0000 91.8000 TC 30 1001 -31.9031 91.6187 2 -32.0000 91.8000 TC 25 1001 49 49 33 109
1973119S09087 1973 47 SI WA MARCELLE 1973-05-06 15:00:00 TS -32.4109 93.6038 35 1001 bom main 1991 1803 P_____O__PO_P_ SH351973 -32.3680 93.6181 -1 -32.4000 93.6000 51 35 1001 -32.4646 93.5934 TC 30 1001 -32.4000 93.6000 2 -32.4646 93.5934 TC 25 1001 49 49 34 102
1973119S09087 1973 47 SI WA MARCELLE 1973-05-06 18:00:00 TS -32.6491 95.6846 40 1001 bom main 1794 1591 O_____O__OP_O_ jtwc_sh SH351973 -32.6000 95.8000 -1 -32.7000 95.6000 51 40 1001 -32.7000 95.6000 TC 30 1001 -32.5945 95.7076 2 -32.7000 95.6000 TC 25 1001 55 55 37 94
1973119S09087 1973 47 SI WA MARCELLE 1973-05-06 21:00:00 TS -32.6374 97.9854 40 1000 bom main 1582 1382 P_____O__PP_P_ SH351973 -32.5854 98.0483 -1 -33.0000 97.9000 51 40 1000 -32.5244 97.9799 TC 30 1000 -32.6051 97.9562 2 -32.5244 97.9799 TC 27 1000 55 55 39 86
1973119S09087 1973 47 SI WA MARCELLE 1973-05-07 00:00:00 TS -32.4061 100.341 45 1000 bom main 1373 1177 O_____O__OP_O_ jtwc_sh SH351973 -32.5000 100.300 -1 -32.3000 100.400 51 45 1000 -32.3000 100.400 TC 30 1000 -32.5365 100.249 2 -32.3000 100.400 TC 30 1000 64 64 38 88
1973119S09087 1973 47 SI WA MARCELLE 1973-05-07 03:00:00 TS -32.4976 102.505 45 1000 bom main 1168 980 P_____O__PO_P_ SH351973 -32.5585 102.472 -1 -32.5000 102.500 51 45 1000 -32.4343 102.541 TC 32 998 -32.5000 102.500 2 -32.4343 102.541 TC 32 998 64 64 36 94
1973119S09087 1973 47 SI WA MARCELLE 1973-05-07 06:00:00 TS -32.6885 104.607 50 996 bom main 971 783 O_____O__OP_O_ jtwc_sh SH351973 -32.7000 104.600 -1 -32.7000 104.600 51 50 996 -32.7000 104.600 TC 35 996 -32.6313 104.642 2 -32.7000 104.600 TC 35 996 69 69 36 96
1973119S09087 1973 47 SI WA MARCELLE 1973-05-07 09:00:00 TS -32.8797 106.720 55 990 bom main 774 586 P_____O__PP_P_ SH351973 -32.8819 106.722 -1 -32.9000 106.700 51 55 990 -32.8972 106.716 TC 42 992 -32.8200 106.743 2 -32.8972 106.716 TC 42 992 75 75 35 97
1973119S09087 1973 47 SI WA MARCELLE 1973-05-07 12:00:00 TS -33.0914 108.800 60 988 bom main 577 399 O_____O__OP_O_ jtwc_sh SH351973 -33.1000 108.800 -1 -33.1000 108.800 51 60 988 -33.1000 108.800 TC 50 988 -33.0486 108.798 2 -33.1000 108.800 TC 50 988 84 84 34 97
1973119S09087 1973 47 SI WA MARCELLE 1973-05-07 15:00:00 TS -33.2969 110.801 60 984 bom main 390 213 P_____O__PO_P_ SH351973 -33.2893 110.831 -1 -33.3000 110.800 51 60 984 -33.3013 110.771 TC 55 984 -33.3000 110.800 2 -33.3013 110.771 TC 55 984 84 84 34 97
1973119S09087 1973 47 SI WA MARCELLE 1973-05-07 18:00:00 TS -33.4749 112.809 60 980 bom main 203 18 O_____O__OP_O_ jtwc_sh SH351973 -33.5000 112.800 -1 -33.5000 112.800 51 60 980 -33.5000 112.800 TC 60 980 -33.3493 112.851 2 -33.5000 112.800 TC 60 980 84 84 35 95
1973119S09087 1973 47 SI WA MARCELLE 1973-05-07 21:00:00 TS -33.6291 114.939 60 976 bom main 9 0 P_____O__PP_P_ SH351973 -33.6953 114.748 -1 -33.7000 114.800 51 60 976 -33.6193 115.252 TC 57 982 -33.4451 114.832 2 -33.6193 115.252 TC 57 982 84 84 35 96
1973119S09087 1973 47 SI WA MARCELLE 1973-05-08 00:00:00 TS -33.8529 117.016 60 984 bom main 0 0 O_____O__OP_O_ jtwc_sh SH351973 -34.0000 116.600 -1 -33.8000 117.400 51 60 984 -33.8000 117.400 TC 55 984 -33.7176 116.694 2 -33.8000 117.400 TC 55 984 84 84 30 102
1973119S09087 1973 47 SI WA MARCELLE 1973-05-08 03:00:00 TS -34.2400 118.425 55 987 bom main 0 0 P_____O__PO_P_ SH351973 -34.3606 118.375 -1 -34.3000 118.400 51 55 987 -34.0595 118.500 TC 52 985 -34.3000 118.400 4 70 -34.0595 118.500 TC 52 985 75 75 25 116
1973119S09087 1973 47 SI WA MARCELLE 1973-05-08 06:00:00 TS -34.9299 119.702 50 987 bom main 52 52 O_____O__OP_O_ jtwc_sh SH351973 -35.1000 120.000 -1 -34.7000 119.400 51 50 987 -34.7000 119.400 TC 50 987 -35.2794 120.012 4 -34.7000 119.400 TC 50 987 69 69 30 129
1973119S09087 1973 47 SI WA MARCELLE 1973-05-08 09:00:00 TS -36.1103 121.273 50 984 bom main 244 244 P_____O__PP_P_ SH351973 -36.4260 121.523 -1 -35.7000 121.000 51 50 984 -35.7622 121.050 TC 55 984 -36.5857 121.495 4 -35.7622 121.050 TC 55 984 69 69 38 138
1973119S09087 1973 47 SI WA MARCELLE 1973-05-08 12:00:00 TS -37.7540 122.843 50 981 bom main 423 423 O_____O__OP_O_ jtwc_sh SH351973 -38.1000 122.900 -1 -37.4000 122.800 51 50 981 -37.4000 122.800 TC 60 981 -38.1240 122.857 4 -37.4000 122.800 TC 60 981 69 69 43 148
1973119S09087 1973 47 SI WA MARCELLE 1973-05-08 15:00:00 TS -39.7360 124.155 50 978 bom main 641 641 P_____O__PO_P_ SH351973 -39.7607 124.165 -1 -39.8000 124.100 51 50 978 -39.6472 124.200 TC 62 978 -39.8000 124.100 2 -39.6472 124.200 TC 62 978 69 69 45 154
1973119S09087 1973 47 SI WA MARCELLE 1973-05-08 18:00:00 TS -41.8389 125.379 50 976 bom main 889 889 O_____O__OP_O_ jtwc_sh SH351973 -41.5000 125.300 -1 -42.2000 125.500 51 50 976 -42.2000 125.500 TC 65 976 -41.5348 125.225 2 -42.2000 125.500 TC 65 976 69 69 45 157
1973119S09087 1973 47 SI WA MARCELLE 1973-05-08 21:00:00 TS -43.8913 126.572 50 974 bom main 1140 1140 P_____O__PP_P_ SH351973 -43.2518 126.356 -1 -44.6000 126.900 51 50 974 -44.6157 126.851 TC 67 974 -43.3055 126.269 2 -44.6157 126.851 TC 67 974 69 69 44 157
1973119S09087 1973 47 SI WA MARCELLE 1973-05-09 00:00:00 TS -45.8427 127.751 50 972 bom main 1309 1309 O_____O__OP_O_ jtwc_sh SH351973 -45.0000 127.400 -1 -46.9000 128.300 51 50 972 4 -46.9000 128.300 TC 70 972 -45.0995 127.277 2 -46.9000 128.300 TC 70 972 69 69 32 158
1973119S09087 1973 47 SI WA MARCELLE 1973-05-09 03:00:00 NR -46.9000 128.300 main 1387 __________O___ SH351973 -1 TC -46.9000 128.300 2 TC 22 160

About IBTrACS Database

This database is a web-friendly format of International Best Track Archive for Climate Stewardship (IBTrACS), a global best track data archive curated by NOAA dating back to 1842.

Updated: 2021-10-27